Observations for ALBENGA, Italy (LIMG)

LIMG 201650Z 00000KT CAVOK 12/06 Q1024  
LIMG 201550Z 00000KT CAVOK 13/06 Q1024  
LIMG 201450Z 00000KT CAVOK 14/06 Q1025  
LIMG 201350Z 00000KT CAVOK 14/06 Q1024  
LIMG 201250Z 23005KT CAVOK 15/06 Q1024  
LIMG 201150Z 11008KT CAVOK 14/06 Q1025  
LIMG 201050Z 12005KT CAVOK 13/05 Q1025  
LIMG 200950Z 00000KT CAVOK 12/05 Q1025  
LIMG 200850Z 00000KT CAVOK 07/04 Q1025  
LIMG 200750Z 00000KT CAVOK 04/02 Q1025